createdAt,value
2019-06-15T00:00:15.205Z,7.30
2019-06-15T00:01:15.185Z,7.90
2019-06-15T00:02:15.185Z,8.60
2019-06-15T00:03:15.176Z,7.20
2019-06-15T00:04:15.173Z,8.50
2019-06-15T00:05:15.176Z,7.80
2019-06-15T00:06:15.173Z,7.20
2019-06-15T00:07:15.171Z,7.30
2019-06-15T00:08:15.170Z,7.00
2019-06-15T00:09:15.161Z,6.80
2019-06-15T00:10:15.161Z,6.20
2019-06-15T00:11:15.161Z,6.00
2019-06-15T00:12:15.159Z,5.80
2019-06-15T00:13:15.159Z,5.70
2019-06-15T00:14:15.157Z,6.10
2019-06-15T00:15:15.152Z,6.20
2019-06-15T00:16:15.153Z,6.20
2019-06-15T00:17:15.152Z,6.60
2019-06-15T00:18:15.151Z,6.00
2019-06-15T00:19:15.145Z,6.30
2019-06-15T00:20:15.141Z,6.70
2019-06-15T00:21:15.142Z,6.60
2019-06-15T00:22:15.133Z,6.20
2019-06-15T00:23:15.133Z,7.20
2019-06-15T00:24:15.127Z,6.60
2019-06-15T00:25:15.137Z,7.70
2019-06-15T00:26:15.129Z,7.20
2019-06-15T00:27:15.129Z,6.90
2019-06-15T00:28:15.181Z,6.50
2019-06-15T00:29:15.120Z,7.40
2019-06-15T00:30:15.119Z,6.40
2019-06-15T00:31:15.121Z,6.40
2019-06-15T00:32:15.117Z,6.80
2019-06-15T00:33:15.113Z,7.30
2019-06-15T00:34:15.111Z,7.90
2019-06-15T00:35:15.107Z,13.00
2019-06-15T00:36:15.103Z,9.10
2019-06-15T00:37:15.104Z,13.10
2019-06-15T00:38:15.104Z,10.00
2019-06-15T00:39:15.109Z,9.10
2019-06-15T00:40:15.101Z,11.40
2019-06-15T00:41:15.097Z,12.00
2019-06-15T00:42:15.094Z,11.20
2019-06-15T00:43:15.094Z,9.60
2019-06-15T00:44:15.085Z,10.50
2019-06-15T00:45:15.087Z,10.00
2019-06-15T00:46:15.087Z,8.80
2019-06-15T00:47:15.084Z,9.80
2019-06-15T00:48:15.076Z,9.60
2019-06-15T00:49:15.079Z,9.70
2019-06-15T00:50:15.075Z,9.80
2019-06-15T00:51:15.076Z,10.30
2019-06-15T00:52:15.086Z,9.50
2019-06-15T00:53:15.067Z,9.20
2019-06-15T00:54:15.066Z,9.80
2019-06-15T00:55:15.062Z,10.20
2019-06-15T00:56:15.060Z,10.30
2019-06-15T00:57:15.063Z,10.10
2019-06-15T00:58:15.057Z,9.80
2019-06-15T00:59:15.110Z,10.90
2019-06-15T01:00:15.050Z,10.20
2019-06-15T01:01:15.043Z,10.80
2019-06-15T01:02:15.042Z,10.50
2019-06-15T01:03:15.042Z,10.00
2019-06-15T01:04:15.040Z,10.70
2019-06-15T01:05:15.032Z,10.40
2019-06-15T01:06:15.030Z,11.60
2019-06-15T01:07:15.031Z,11.10
2019-06-15T01:08:15.026Z,10.60
2019-06-15T01:09:15.043Z,9.60
2019-06-15T01:10:15.026Z,10.30
2019-06-15T01:11:15.022Z,9.30
2019-06-15T01:12:15.020Z,10.10
2019-06-15T01:13:15.012Z,10.00
2019-06-15T01:14:15.011Z,9.40
2019-06-15T01:15:15.016Z,9.80
2019-06-15T01:16:15.001Z,9.90
2019-06-15T01:17:15.006Z,8.80
2019-06-15T01:18:15.023Z,9.00
2019-06-15T01:19:14.993Z,9.40
2019-06-15T01:20:14.987Z,8.40
2019-06-15T01:21:14.995Z,9.80
2019-06-15T01:22:14.990Z,8.90
2019-06-15T01:23:14.988Z,9.10
2019-06-15T01:24:14.984Z,9.20
2019-06-15T01:25:14.979Z,8.20
2019-06-15T01:26:14.978Z,10.60
2019-06-15T01:27:14.975Z,7.60
2019-06-15T01:28:14.968Z,6.60
2019-06-15T01:29:14.969Z,7.20
2019-06-15T01:30:14.976Z,8.20
2019-06-15T01:31:14.965Z,6.40
2019-06-15T01:32:14.958Z,6.20
2019-06-15T01:33:14.951Z,7.80
2019-06-15T01:34:14.952Z,8.90
2019-06-15T01:35:14.948Z,7.90
2019-06-15T01:36:14.948Z,8.40
2019-06-15T01:37:14.944Z,8.90
2019-06-15T01:38:14.937Z,7.90
2019-06-15T01:39:14.936Z,8.40
2019-06-15T01:40:14.933Z,8.40
2019-06-15T01:41:14.935Z,9.80
2019-06-15T01:42:14.934Z,9.00
2019-06-15T01:43:14.929Z,8.50
2019-06-15T01:44:14.925Z,9.60
2019-06-15T01:45:14.920Z,8.90
2019-06-15T01:46:14.916Z,8.40
2019-06-15T01:47:14.919Z,9.00
2019-06-15T01:48:14.911Z,10.00
2019-06-15T01:49:14.913Z,9.60
2019-06-15T01:50:14.928Z,9.00
2019-06-15T01:51:14.904Z,8.00
2019-06-15T01:52:14.902Z,8.50
2019-06-15T01:53:14.906Z,8.90
2019-06-15T01:54:14.900Z,9.20
2019-06-15T01:55:20.864Z,8.00
2019-06-15T01:56:14.891Z,8.20
2019-06-15T01:57:14.884Z,8.00
2019-06-15T01:58:14.882Z,8.70
2019-06-15T01:59:14.883Z,9.30
2019-06-15T02:00:14.885Z,8.60
2019-06-15T02:01:14.879Z,8.40
2019-06-15T02:02:14.878Z,8.60
2019-06-15T02:03:14.877Z,9.50
2019-06-15T02:04:14.874Z,9.40
2019-06-15T02:05:14.868Z,8.70
2019-06-15T02:06:14.867Z,9.00
2019-06-15T02:07:14.867Z,9.10
2019-06-15T02:08:14.863Z,9.40
2019-06-15T02:09:14.860Z,10.50
2019-06-15T02:10:14.881Z,9.40
2019-06-15T02:11:14.851Z,9.60
2019-06-15T02:12:14.848Z,9.90
2019-06-15T02:13:14.863Z,10.80
2019-06-15T02:14:14.852Z,10.80
2019-06-15T02:15:14.856Z,10.10
2019-06-15T02:16:14.844Z,10.90
2019-06-15T02:17:14.837Z,10.70
2019-06-15T02:18:14.845Z,10.60
2019-06-15T02:19:14.834Z,11.50
2019-06-15T02:20:14.831Z,9.00
2019-06-15T02:21:14.835Z,9.00
2019-06-15T02:22:14.835Z,9.10
2019-06-15T02:23:14.829Z,10.30
2019-06-15T02:24:14.822Z,9.00
2019-06-15T02:25:14.824Z,8.80
2019-06-15T02:26:14.821Z,10.10
2019-06-15T02:27:14.816Z,9.20
2019-06-15T02:28:14.817Z,8.00
2019-06-15T02:29:14.808Z,9.20
2019-06-15T02:30:14.806Z,8.70
2019-06-15T02:31:14.805Z,9.00
2019-06-15T02:32:14.803Z,11.20
2019-06-15T02:33:14.802Z,9.10
2019-06-15T02:34:14.819Z,11.30
2019-06-15T02:35:14.801Z,10.60
2019-06-15T02:36:14.795Z,10.80
2019-06-15T02:37:14.791Z,10.30
2019-06-15T02:38:14.786Z,9.20
2019-06-15T02:39:14.788Z,10.80
2019-06-15T02:40:14.788Z,11.10
2019-06-15T02:41:14.779Z,11.00
2019-06-15T02:42:14.779Z,9.90
2019-06-15T02:43:14.773Z,9.80
2019-06-15T02:44:14.768Z,10.30
2019-06-15T02:45:14.776Z,9.40
2019-06-15T02:46:14.802Z,10.30
2019-06-15T02:47:14.776Z,11.90
2019-06-15T02:48:14.768Z,11.60
2019-06-15T02:49:14.759Z,11.80
2019-06-15T02:50:14.758Z,10.50
2019-06-15T02:51:14.753Z,9.80
2019-06-15T02:52:14.749Z,11.00
2019-06-15T02:53:14.751Z,12.50
2019-06-15T02:54:14.752Z,11.80
2019-06-15T02:55:14.742Z,12.00
2019-06-15T02:56:14.740Z,12.40
2019-06-15T02:57:14.741Z,11.80
2019-06-15T02:58:14.739Z,12.00
2019-06-15T02:59:14.739Z,11.70
2019-06-15T03:00:14.735Z,12.50
2019-06-15T03:01:14.730Z,11.50
2019-06-15T03:02:14.728Z,11.80
2019-06-15T03:03:14.726Z,13.00
2019-06-15T03:04:14.721Z,12.10
2019-06-15T03:05:14.725Z,12.10
2019-06-15T03:06:14.722Z,12.60
2019-06-15T03:07:14.751Z,13.10
2019-06-15T03:08:14.715Z,13.30
2019-06-15T03:09:14.733Z,14.30
2019-06-15T03:10:14.705Z,14.50
2019-06-15T03:11:14.710Z,15.20
2019-06-15T03:12:14.703Z,15.40
2019-06-15T03:13:14.700Z,14.20
2019-06-15T03:14:14.695Z,14.80
2019-06-15T03:15:14.696Z,15.40
2019-06-15T03:16:14.748Z,14.10
2019-06-15T03:17:14.692Z,14.00
2019-06-15T03:18:14.693Z,16.20
2019-06-15T03:19:14.689Z,16.70
2019-06-15T03:20:14.683Z,16.50
2019-06-15T03:21:14.678Z,15.10
2019-06-15T03:22:14.676Z,16.50
2019-06-15T03:23:14.671Z,16.60
2019-06-15T03:24:14.679Z,15.30
2019-06-15T03:25:14.675Z,16.30
2019-06-15T03:26:14.667Z,18.50
2019-06-15T03:27:14.661Z,17.20
2019-06-15T03:28:14.658Z,16.30
2019-06-15T03:29:14.660Z,16.40
2019-06-15T03:30:14.660Z,16.80
2019-06-15T03:31:14.668Z,14.50
2019-06-15T03:32:14.655Z,16.30
2019-06-15T03:33:14.648Z,15.20
2019-06-15T03:34:14.646Z,15.40
2019-06-15T03:35:14.643Z,16.30
2019-06-15T03:36:14.639Z,15.10
2019-06-15T03:37:14.642Z,14.40
2019-06-15T03:38:14.640Z,13.90
2019-06-15T03:39:14.643Z,14.70
2019-06-15T03:40:14.631Z,14.40
2019-06-15T03:41:14.624Z,15.90
2019-06-15T03:42:14.620Z,16.20
2019-06-15T03:43:14.622Z,16.20
2019-06-15T03:44:14.622Z,17.30
2019-06-15T03:45:14.615Z,15.40
2019-06-15T03:46:14.611Z,16.20
2019-06-15T03:47:14.611Z,16.90
2019-06-15T03:48:14.608Z,17.00
2019-06-15T03:49:14.611Z,16.20
2019-06-15T03:50:14.611Z,16.20
2019-06-15T03:51:14.605Z,15.80
2019-06-15T03:52:14.609Z,18.70
2019-06-15T03:53:14.597Z,18.40
2019-06-15T03:54:14.594Z,16.80
2019-06-15T03:55:14.589Z,19.00
2019-06-15T03:56:21.525Z,19.40
2019-06-15T03:57:14.586Z,19.70
2019-06-15T03:58:14.585Z,17.30
2019-06-15T03:59:14.577Z,19.40
2019-06-15T04:00:14.584Z,20.00
2019-06-15T04:01:14.578Z,20.80
2019-06-15T04:02:14.578Z,20.00
2019-06-15T04:03:14.574Z,22.10
2019-06-15T04:04:14.571Z,22.90
2019-06-15T04:05:14.565Z,24.20
2019-06-15T04:06:14.562Z,26.60
2019-06-15T04:07:14.560Z,31.20
2019-06-15T04:08:14.558Z,31.20
2019-06-15T04:09:14.560Z,32.30
2019-06-15T04:10:14.557Z,32.50
2019-06-15T04:11:14.562Z,31.80
2019-06-15T04:12:14.552Z,34.00
2019-06-15T04:13:14.542Z,35.40
2019-06-15T04:14:14.541Z,35.00
2019-06-15T04:15:14.545Z,35.70
2019-06-15T04:16:14.541Z,35.20
2019-06-15T04:17:14.533Z,35.70
2019-06-15T04:18:14.531Z,38.80
2019-06-15T04:19:14.530Z,35.20
2019-06-15T04:20:14.530Z,40.00
2019-06-15T04:21:14.527Z,36.50
2019-06-15T04:22:14.527Z,43.50
2019-06-15T04:23:14.525Z,40.20
2019-06-15T04:24:14.521Z,39.20
2019-06-15T04:25:14.515Z,38.60
2019-06-15T04:26:14.512Z,40.00
2019-06-15T04:27:14.508Z,41.60
2019-06-15T04:28:14.505Z,41.50
2019-06-15T04:29:14.505Z,42.70
2019-06-15T04:30:14.505Z,44.40
2019-06-15T04:31:14.500Z,46.40
2019-06-15T04:32:14.494Z,42.90
2019-06-15T04:33:14.499Z,44.90
2019-06-15T04:34:14.495Z,42.80
2019-06-15T04:35:14.496Z,42.10
2019-06-15T04:36:14.491Z,41.50
2019-06-15T04:37:14.486Z,41.60
2019-06-15T04:38:14.484Z,46.10
2019-06-15T04:39:14.482Z,43.90
2019-06-15T04:40:14.478Z,43.50
2019-06-15T04:41:14.479Z,45.40
2019-06-15T04:42:14.478Z,47.40
2019-06-15T04:43:14.474Z,44.60
2019-06-15T04:44:14.472Z,43.30
2019-06-15T04:45:14.464Z,46.60
2019-06-15T04:46:14.486Z,41.90
2019-06-15T04:47:14.463Z,45.90
2019-06-15T04:48:14.464Z,41.90
2019-06-15T04:49:14.453Z,42.10
2019-06-15T04:50:14.456Z,43.90
2019-06-15T04:51:14.451Z,41.30
2019-06-15T04:52:14.447Z,42.00
2019-06-15T04:53:14.953Z,43.60
2019-06-15T04:54:14.447Z,40.50
2019-06-15T04:55:14.447Z,39.50
2019-06-15T04:56:14.440Z,43.20
2019-06-15T04:57:14.434Z,40.40
2019-06-15T04:58:14.434Z,41.40
2019-06-15T04:59:14.433Z,41.50
2019-06-15T05:00:14.429Z,41.70
2019-06-15T05:01:14.430Z,40.20
2019-06-15T05:02:14.427Z,42.70
2019-06-15T05:03:14.421Z,40.00
2019-06-15T05:04:14.419Z,40.60
2019-06-15T05:05:14.421Z,37.90
2019-06-15T05:06:14.422Z,40.20
2019-06-15T05:07:14.418Z,44.60
2019-06-15T05:08:14.410Z,39.70
2019-06-15T05:09:14.405Z,39.20
2019-06-15T05:10:14.400Z,42.60
2019-06-15T05:11:14.404Z,41.10
2019-06-15T05:12:14.396Z,39.40
2019-06-15T05:13:14.401Z,41.30
2019-06-15T05:14:14.401Z,40.40
2019-06-15T05:15:14.396Z,40.30
2019-06-15T05:16:14.397Z,40.20
2019-06-15T05:17:14.387Z,36.50
2019-06-15T05:18:14.492Z,36.00
2019-06-15T05:19:14.388Z,34.60
2019-06-15T05:20:14.387Z,33.90
2019-06-15T05:21:14.406Z,33.20
2019-06-15T05:22:14.379Z,34.50
2019-06-15T05:23:14.373Z,34.10
2019-06-15T05:24:14.368Z,32.20
2019-06-15T05:25:14.369Z,31.60
2019-06-15T05:26:14.367Z,32.90
2019-06-15T05:27:14.367Z,31.90
2019-06-15T05:28:14.367Z,29.50
2019-06-15T05:29:14.357Z,31.20
2019-06-15T05:30:14.353Z,31.80
2019-06-15T05:31:14.354Z,29.60
2019-06-15T05:32:14.353Z,29.40
2019-06-15T05:33:14.353Z,29.20
2019-06-15T05:34:14.353Z,30.00
2019-06-15T05:35:14.347Z,28.90
2019-06-15T05:36:14.343Z,29.50
2019-06-15T05:37:14.345Z,33.60
2019-06-15T05:38:14.343Z,32.20
2019-06-15T05:39:14.339Z,31.00
2019-06-15T05:40:14.341Z,29.50
2019-06-15T05:41:15.770Z,32.10
2019-06-15T05:42:14.327Z,29.80
2019-06-15T05:43:14.324Z,28.40
2019-06-15T05:44:14.325Z,29.00
2019-06-15T05:45:14.327Z,31.10
2019-06-15T05:46:14.326Z,28.30
2019-06-15T05:47:14.323Z,28.00
2019-06-15T05:48:14.318Z,29.30
2019-06-15T05:49:14.316Z,29.80
2019-06-15T05:50:14.314Z,28.90
2019-06-15T05:51:14.341Z,28.00
2019-06-15T05:52:14.319Z,29.60
2019-06-15T05:53:14.304Z,29.50
2019-06-15T05:54:14.303Z,29.80
2019-06-15T05:55:14.297Z,29.00
2019-06-15T05:56:14.292Z,29.40
2019-06-15T05:57:21.542Z,28.80
2019-06-15T05:58:14.301Z,29.80
2019-06-15T05:59:14.297Z,28.30
2019-06-15T06:00:14.296Z,27.80
2019-06-15T06:01:14.286Z,27.30
2019-06-15T06:02:14.283Z,30.80
2019-06-15T06:03:14.276Z,29.80
2019-06-15T06:04:14.275Z,30.40
2019-06-15T06:05:14.278Z,27.00
2019-06-15T06:06:14.276Z,28.50
2019-06-15T06:07:14.268Z,27.20
2019-06-15T06:08:14.265Z,28.00
2019-06-15T06:09:14.275Z,27.60
2019-06-15T06:10:14.266Z,28.10
2019-06-15T06:11:14.308Z,28.10
2019-06-15T06:12:14.264Z,27.70
2019-06-15T06:13:14.261Z,27.20
2019-06-15T06:14:14.256Z,28.30
2019-06-15T06:15:14.256Z,28.60
2019-06-15T06:16:14.288Z,28.10
2019-06-15T06:17:14.263Z,28.50
2019-06-15T06:18:14.254Z,26.70
2019-06-15T06:19:14.248Z,28.30
2019-06-15T06:20:14.246Z,26.20
2019-06-15T06:21:14.240Z,26.20
2019-06-15T06:22:14.237Z,29.10
2019-06-15T06:23:14.316Z,28.40
2019-06-15T06:24:14.238Z,28.70
2019-06-15T06:25:14.236Z,26.60
2019-06-15T06:26:14.242Z,26.60
2019-06-15T06:27:14.231Z,27.20
2019-06-15T06:28:14.227Z,27.60
2019-06-15T06:29:14.230Z,28.50
2019-06-15T06:30:14.228Z,27.10
2019-06-15T06:31:14.227Z,26.10
2019-06-15T06:32:14.224Z,26.30
2019-06-15T06:33:14.218Z,27.90
2019-06-15T06:34:14.216Z,28.90
2019-06-15T06:35:14.217Z,27.60
2019-06-15T06:36:14.211Z,30.00
2019-06-15T06:37:14.216Z,28.10
2019-06-15T06:38:14.212Z,28.40
2019-06-15T06:39:14.204Z,29.30
2019-06-15T06:40:14.205Z,27.50
2019-06-15T06:41:14.204Z,29.80
2019-06-15T06:42:14.207Z,27.20
2019-06-15T06:43:14.205Z,28.30
2019-06-15T06:44:14.204Z,28.90
2019-06-15T06:45:14.202Z,30.20
2019-06-15T06:46:14.199Z,27.50
2019-06-15T06:47:14.195Z,28.50
2019-06-15T06:48:14.191Z,27.40
2019-06-15T06:49:14.195Z,25.60
2019-06-15T06:50:14.195Z,25.60
2019-06-15T06:51:14.187Z,26.40
2019-06-15T06:52:14.185Z,24.30
2019-06-15T06:53:14.259Z,25.40
2019-06-15T06:54:14.180Z,24.40
2019-06-15T06:55:14.183Z,24.40
2019-06-15T06:56:14.180Z,24.10
2019-06-15T06:57:14.176Z,23.40
2019-06-15T06:58:14.173Z,22.60
2019-06-15T06:59:14.176Z,21.00
2019-06-15T07:00:14.175Z,21.60
2019-06-15T07:01:14.177Z,22.30
2019-06-15T07:02:14.177Z,19.10
2019-06-15T07:03:14.177Z,20.00
2019-06-15T07:04:14.171Z,19.90
2019-06-15T07:05:14.168Z,18.10
2019-06-15T07:06:14.167Z,19.00
2019-06-15T07:07:14.172Z,18.20
2019-06-15T07:08:14.170Z,17.00
2019-06-15T07:09:14.173Z,17.40
2019-06-15T07:10:14.173Z,17.20
2019-06-15T07:11:14.170Z,17.10
2019-06-15T07:12:14.175Z,16.70
2019-06-15T07:13:14.178Z,17.40
2019-06-15T07:14:14.181Z,17.00
2019-06-15T07:15:14.176Z,17.90
2019-06-15T07:16:14.183Z,17.70
2019-06-15T07:17:14.171Z,18.20
2019-06-15T07:18:14.173Z,16.60
2019-06-15T07:19:14.180Z,17.50
2019-06-15T07:20:14.177Z,17.20
2019-06-15T07:21:14.180Z,17.50
2019-06-15T07:22:14.184Z,17.60
2019-06-15T07:23:14.195Z,18.00
2019-06-15T07:24:14.185Z,18.80
2019-06-15T07:25:14.183Z,18.40
2019-06-15T07:26:14.184Z,18.00
2019-06-15T07:27:14.190Z,17.70
2019-06-15T07:28:14.193Z,18.70
2019-06-15T07:29:14.186Z,17.70
2019-06-15T07:30:14.191Z,17.30
2019-06-15T07:31:14.185Z,17.30
2019-06-15T07:32:14.187Z,17.20
2019-06-15T07:33:14.192Z,16.90
2019-06-15T07:34:14.195Z,15.30
2019-06-15T07:35:14.197Z,15.40
2019-06-15T07:36:14.398Z,15.60
2019-06-15T07:37:14.194Z,16.00
2019-06-15T07:38:14.198Z,14.30
2019-06-15T07:39:14.207Z,16.40
2019-06-15T07:40:14.207Z,15.10
2019-06-15T07:41:14.214Z,14.00
2019-06-15T07:42:14.217Z,14.70
2019-06-15T07:43:14.219Z,14.90
2019-06-15T07:44:14.267Z,15.30
2019-06-15T07:45:14.232Z,14.60
2019-06-15T07:46:14.237Z,14.80
2019-06-15T07:47:14.241Z,12.70
2019-06-15T07:48:14.293Z,12.30
2019-06-15T07:49:14.246Z,13.20
2019-06-15T07:50:14.251Z,12.30
2019-06-15T07:51:14.262Z,11.70
2019-06-15T07:52:14.264Z,11.90
2019-06-15T07:53:14.278Z,11.30
2019-06-15T07:54:14.280Z,12.40
2019-06-15T07:55:14.290Z,13.80
2019-06-15T07:56:14.296Z,12.40
2019-06-15T07:57:14.300Z,13.70
2019-06-15T07:58:24.189Z,13.40
2019-06-15T07:59:14.314Z,13.50
2019-06-15T08:00:14.329Z,13.40
2019-06-15T08:01:14.323Z,14.10
2019-06-15T08:02:14.331Z,13.60
2019-06-15T08:03:14.330Z,13.60
2019-06-15T08:04:14.368Z,13.60
2019-06-15T08:05:14.346Z,13.70
2019-06-15T08:06:14.352Z,12.30
2019-06-15T08:07:14.354Z,12.00
2019-06-15T08:08:14.358Z,10.80
2019-06-15T08:09:14.374Z,10.60
2019-06-15T08:10:14.371Z,10.80
2019-06-15T08:11:14.378Z,10.40
2019-06-15T08:12:14.377Z,10.60
2019-06-15T08:13:14.379Z,10.50
2019-06-15T08:14:14.380Z,10.20
2019-06-15T08:15:14.391Z,9.70
2019-06-15T08:16:14.392Z,10.40
2019-06-15T08:17:14.402Z,10.00
2019-06-15T08:18:14.394Z,9.80
2019-06-15T08:19:14.402Z,9.10
2019-06-15T08:20:14.412Z,9.30
2019-06-15T08:21:14.408Z,8.00
2019-06-15T08:22:14.413Z,8.30
2019-06-15T08:23:14.415Z,7.10
2019-06-15T08:24:14.419Z,7.90
2019-06-15T08:25:14.415Z,7.80
2019-06-15T08:26:14.420Z,7.80
2019-06-15T08:27:14.418Z,6.80
2019-06-15T08:28:14.419Z,7.10
2019-06-15T08:29:14.426Z,6.40
2019-06-15T08:30:14.437Z,5.00
2019-06-15T08:31:14.422Z,5.90
2019-06-15T08:32:14.425Z,5.30
2019-06-15T08:33:14.430Z,5.20
2019-06-15T08:34:14.431Z,4.30
2019-06-15T08:35:14.436Z,4.10
2019-06-15T08:36:14.434Z,5.70
2019-06-15T08:37:14.431Z,4.10
2019-06-15T08:38:14.437Z,5.00
2019-06-15T08:39:14.444Z,5.00
2019-06-15T08:40:14.434Z,3.30
2019-06-15T08:41:14.439Z,3.20
2019-06-15T08:42:14.441Z,6.50
2019-06-15T08:43:14.439Z,3.80
2019-06-15T08:44:14.437Z,3.20
2019-06-15T08:45:14.434Z,2.70
2019-06-15T08:46:14.434Z,5.30
2019-06-15T08:47:14.451Z,4.60
2019-06-15T08:48:14.487Z,3.20
2019-06-15T08:49:14.436Z,2.90
2019-06-15T08:50:14.435Z,4.40
2019-06-15T08:51:14.437Z,3.40
2019-06-15T08:52:14.436Z,3.70
2019-06-15T08:53:14.439Z,3.40
2019-06-15T08:54:14.444Z,2.90
2019-06-15T08:55:14.442Z,3.10
2019-06-15T08:56:14.438Z,2.60
2019-06-15T08:57:14.436Z,2.70
2019-06-15T08:58:14.435Z,2.40
2019-06-15T08:59:14.436Z,2.50
2019-06-15T09:00:14.432Z,3.30
2019-06-15T09:01:14.438Z,2.80
2019-06-15T09:02:14.437Z,3.20
2019-06-15T09:03:14.431Z,3.10
2019-06-15T09:04:14.429Z,3.30
2019-06-15T09:05:14.433Z,4.40
2019-06-15T09:06:14.432Z,3.90
2019-06-15T09:07:14.433Z,3.10
2019-06-15T09:08:14.434Z,4.00
2019-06-15T09:09:16.083Z,3.50
2019-06-15T09:10:14.427Z,2.90
2019-06-15T09:11:14.430Z,3.20
2019-06-15T09:12:14.421Z,3.70
2019-06-15T09:13:14.425Z,3.50
2019-06-15T09:14:14.429Z,3.70
2019-06-15T09:15:14.425Z,3.30
2019-06-15T09:16:14.423Z,4.40
2019-06-15T09:17:14.418Z,4.20
2019-06-15T09:18:14.418Z,5.40
2019-06-15T09:19:14.423Z,6.50
2019-06-15T09:20:14.418Z,7.10
2019-06-15T09:21:14.415Z,6.80
2019-06-15T09:22:14.416Z,8.80
2019-06-15T09:23:14.410Z,9.10
2019-06-15T09:24:14.408Z,9.50
2019-06-15T09:25:14.410Z,9.80
2019-06-15T09:26:14.411Z,11.10
2019-06-15T09:27:14.419Z,10.40
2019-06-15T09:28:14.407Z,11.30
2019-06-15T09:29:14.402Z,12.70
2019-06-15T09:30:14.402Z,13.80
2019-06-15T09:31:14.403Z,13.60
2019-06-15T09:32:14.402Z,13.10
2019-06-15T09:33:14.405Z,13.90
2019-06-15T09:34:18.937Z,14.20
2019-06-15T09:35:14.399Z,15.80
2019-06-15T09:36:14.398Z,16.20
2019-06-15T09:37:14.400Z,17.20
2019-06-15T09:38:14.399Z,20.50
2019-06-15T09:39:14.749Z,19.00
2019-06-15T09:40:14.396Z,19.50
2019-06-15T09:41:14.392Z,20.60
2019-06-15T09:42:14.389Z,18.70
2019-06-15T09:43:14.390Z,18.80
2019-06-15T09:44:14.390Z,18.20
2019-06-15T09:45:14.394Z,17.40
2019-06-15T09:46:14.395Z,17.10
2019-06-15T09:47:14.398Z,17.30
2019-06-15T09:48:14.396Z,17.20
2019-06-15T09:49:14.395Z,16.00
2019-06-15T09:50:14.395Z,16.20
2019-06-15T09:51:14.400Z,15.20
2019-06-15T09:52:14.401Z,15.70
2019-06-15T09:53:14.399Z,15.20
2019-06-15T09:54:14.401Z,14.60
2019-06-15T09:55:14.398Z,14.40
2019-06-15T09:56:14.402Z,13.60
2019-06-15T09:57:14.418Z,12.80
2019-06-15T09:58:14.408Z,13.20
2019-06-15T09:59:25.619Z,12.70
2019-06-15T10:00:14.413Z,11.60
2019-06-15T10:01:14.412Z,11.80
2019-06-15T10:02:14.413Z,11.60
2019-06-15T10:03:14.420Z,10.50
2019-06-15T10:04:14.436Z,10.80
2019-06-15T10:05:14.438Z,10.50
2019-06-15T10:06:14.448Z,9.90
2019-06-15T10:07:14.437Z,8.70
2019-06-15T10:08:14.463Z,9.10
2019-06-15T10:09:14.635Z,10.20
2019-06-15T10:10:14.468Z,9.00
2019-06-15T10:11:14.466Z,9.50
2019-06-15T10:12:14.468Z,8.80
2019-06-15T10:13:14.473Z,8.90
2019-06-15T10:14:14.483Z,7.70
2019-06-15T10:15:14.499Z,9.10
2019-06-15T10:16:14.505Z,8.60
2019-06-15T10:17:14.518Z,8.30
2019-06-15T10:18:14.530Z,7.40
2019-06-15T10:19:14.537Z,7.70
2019-06-15T10:20:14.555Z,7.10
2019-06-15T10:21:14.556Z,6.90
2019-06-15T10:22:14.576Z,6.60
2019-06-15T10:23:14.583Z,6.20
2019-06-15T10:24:14.595Z,6.50
2019-06-15T10:25:14.601Z,5.70
2019-06-15T10:26:14.615Z,5.80
2019-06-15T10:27:14.631Z,5.40
2019-06-15T10:28:14.642Z,5.50
2019-06-15T10:29:14.660Z,5.10
2019-06-15T10:30:14.672Z,4.80
2019-06-15T10:31:14.689Z,5.40
2019-06-15T10:32:14.745Z,5.30
2019-06-15T10:33:14.712Z,4.80
2019-06-15T10:34:14.723Z,4.20
2019-06-15T10:35:14.734Z,4.20
2019-06-15T10:36:14.754Z,4.40
2019-06-15T10:37:14.766Z,3.60
2019-06-15T10:38:14.781Z,3.60
2019-06-15T10:39:14.805Z,3.90
2019-06-15T10:40:14.807Z,3.30
2019-06-15T10:41:14.828Z,2.90
2019-06-15T10:42:14.837Z,3.00
2019-06-15T10:43:14.856Z,2.60
2019-06-15T10:44:14.869Z,2.80
2019-06-15T10:45:14.878Z,2.60
2019-06-15T10:46:14.893Z,2.70
2019-06-15T10:47:14.909Z,4.70
2019-06-15T10:48:14.922Z,2.70
2019-06-15T10:49:14.943Z,2.70
2019-06-15T10:50:14.956Z,2.60
2019-06-15T10:51:14.970Z,2.70
2019-06-15T10:52:14.986Z,3.40
2019-06-15T10:53:14.999Z,2.50
2019-06-15T10:54:15.010Z,2.40
2019-06-15T10:55:15.035Z,2.20
2019-06-15T10:56:15.048Z,3.40
2019-06-15T10:57:15.059Z,2.50
2019-06-15T10:58:15.076Z,2.00
2019-06-15T10:59:15.094Z,2.00
2019-06-15T11:00:15.118Z,2.00
2019-06-15T11:01:15.136Z,2.10
2019-06-15T11:02:15.145Z,1.90
2019-06-15T11:03:15.163Z,2.10
2019-06-15T11:04:15.178Z,2.20
2019-06-15T11:05:15.192Z,2.00
2019-06-15T11:06:15.209Z,1.90
2019-06-15T11:07:15.226Z,1.90
2019-06-15T11:08:15.238Z,1.60
2019-06-15T11:09:15.261Z,2.00
2019-06-15T11:10:15.280Z,1.80
2019-06-15T11:11:15.290Z,1.60
2019-06-15T11:12:15.306Z,1.70
2019-06-15T11:13:15.328Z,1.80
2019-06-15T11:14:15.345Z,1.90
2019-06-15T11:15:15.365Z,2.30
2019-06-15T11:16:15.376Z,2.10
2019-06-15T11:17:15.395Z,2.30
2019-06-15T11:18:15.419Z,2.30
2019-06-15T11:19:15.418Z,2.00
2019-06-15T11:20:15.430Z,2.30
2019-06-15T11:21:15.448Z,2.20
2019-06-15T11:22:15.465Z,3.30
2019-06-15T11:23:15.482Z,2.20
2019-06-15T11:24:15.494Z,2.90
2019-06-15T11:25:15.505Z,2.10
2019-06-15T11:26:15.516Z,2.30
2019-06-15T11:27:15.552Z,2.80
2019-06-15T11:28:15.545Z,2.20
2019-06-15T11:29:15.576Z,2.60
2019-06-15T11:30:15.570Z,3.00
2019-06-15T11:31:15.624Z,3.30
2019-06-15T11:32:15.585Z,2.50
2019-06-15T11:33:15.601Z,2.20
2019-06-15T11:34:15.620Z,2.60
2019-06-15T11:35:15.624Z,2.50
2019-06-15T11:36:15.640Z,2.70
2019-06-15T11:37:15.640Z,2.60
2019-06-15T11:38:15.648Z,3.40
2019-06-15T11:39:15.663Z,2.10
2019-06-15T11:40:15.721Z,1.90
2019-06-15T11:41:15.685Z,2.10
2019-06-15T11:42:15.697Z,2.00
2019-06-15T11:43:15.709Z,1.90
2019-06-15T11:44:15.707Z,3.80
2019-06-15T11:45:15.720Z,2.20
2019-06-15T11:46:15.727Z,1.60
2019-06-15T11:47:15.733Z,1.90
2019-06-15T11:48:15.746Z,2.70
2019-06-15T11:49:15.746Z,3.10
2019-06-15T11:50:15.752Z,2.40
2019-06-15T11:51:15.764Z,1.80
2019-06-15T11:52:15.767Z,2.10
2019-06-15T11:53:15.779Z,2.20
2019-06-15T11:54:15.787Z,3.00
2019-06-15T11:55:15.797Z,1.90
2019-06-15T11:56:15.804Z,1.80
2019-06-15T11:57:15.806Z,1.70
2019-06-15T11:58:15.814Z,2.10
2019-06-15T11:59:15.826Z,1.90
2019-06-15T12:00:30.389Z,1.60
2019-06-15T12:01:18.810Z,2.00
2019-06-15T12:02:15.842Z,1.60
2019-06-15T12:03:15.845Z,3.70
2019-06-15T12:04:15.851Z,2.40
2019-06-15T12:05:15.884Z,1.90
2019-06-15T12:06:15.876Z,2.20
2019-06-15T12:07:15.876Z,1.60
2019-06-15T12:08:15.884Z,2.30
2019-06-15T12:09:15.893Z,2.60
2019-06-15T12:10:15.891Z,2.90
2019-06-15T12:11:15.902Z,1.90
2019-06-15T12:12:15.906Z,2.00
2019-06-15T12:13:15.918Z,2.40
2019-06-15T12:14:16.015Z,2.10
2019-06-15T12:15:15.927Z,2.40
2019-06-15T12:16:15.937Z,2.10
2019-06-15T12:17:15.943Z,2.60
2019-06-15T12:18:15.951Z,2.10
2019-06-15T12:19:15.960Z,1.90
2019-06-15T12:20:15.960Z,2.20
2019-06-15T12:21:15.963Z,1.80
2019-06-15T12:22:15.969Z,2.40
2019-06-15T12:23:15.975Z,2.10
2019-06-15T12:24:15.982Z,2.30
2019-06-15T12:25:15.991Z,3.10
2019-06-15T12:26:16.001Z,2.40
2019-06-15T12:27:16.006Z,2.30
2019-06-15T12:28:16.015Z,2.30
2019-06-15T12:29:16.015Z,2.20
2019-06-15T12:30:16.021Z,3.20
2019-06-15T12:31:16.035Z,2.00
2019-06-15T12:32:16.037Z,2.30
2019-06-15T12:33:16.040Z,2.30
2019-06-15T12:34:16.060Z,2.30
2019-06-15T12:35:16.049Z,2.20
2019-06-15T12:36:19.467Z,2.60
2019-06-15T12:37:16.064Z,2.40
2019-06-15T12:38:16.069Z,2.80
2019-06-15T12:39:16.080Z,2.10
2019-06-15T12:40:16.078Z,2.50
2019-06-15T12:41:16.086Z,2.30
2019-06-15T12:42:16.087Z,2.70
2019-06-15T12:43:16.097Z,3.40
2019-06-15T12:44:16.100Z,2.40
2019-06-15T12:45:16.111Z,3.20
2019-06-15T12:46:16.126Z,3.30
2019-06-15T12:47:16.120Z,2.40
2019-06-15T12:48:16.152Z,2.40
2019-06-15T12:49:16.134Z,2.60
2019-06-15T12:50:16.136Z,2.30
2019-06-15T12:51:16.166Z,2.50
2019-06-15T12:52:16.145Z,2.30
2019-06-15T12:53:16.148Z,3.30
2019-06-15T12:54:16.152Z,3.10
2019-06-15T12:55:16.159Z,3.40
2019-06-15T12:56:16.160Z,2.70
2019-06-15T12:57:16.171Z,3.00
2019-06-15T12:58:16.208Z,2.40
2019-06-15T12:59:16.188Z,2.90
2019-06-15T13:00:16.187Z,2.60
2019-06-15T13:01:16.201Z,2.30
2019-06-15T13:02:16.198Z,2.90
2019-06-15T13:03:16.348Z,2.50
2019-06-15T13:04:16.205Z,2.90